Connexion

32Km

32 Km FORES TRAIL du 07/07/18 (Reelle 32)
Rang Dossard Nom Prénom Temps Cat Rang Cat Ecart Ecart Cat Club Vitesse Km/h Temps au Km
1 32122 DEVEYCX Gautier 02:25:21 SEM 1 00:00:00 00:00:00 Triathlon littoral 59 13,209 04:33
2 32253 DECLERCK KRISTOF 02:37:18 SEM 2 00:11:57 00:11:57 12,206 04:55
3 32198 DELMOTTE GERARD-ALEXANDRE 02:47:15 V1M 1 00:21:54 00:00:00 JOGGING CLUB LICQUOIS 11,480 05:14
4 32247 LIMOUSIN Stephane 02:51:47 V1M 2 00:26:26 00:04:32 PATRIOTE CROSS DE GUINES 11,177 05:22
5 32152 VASSEUR Dimitri 02:57:25 V1M 3 00:32:04 00:10:10 CAC CALOTERIE 10,822 05:33
6 32183 RIVIERE Romain 02:58:53 SEM 3 00:33:32 00:33:32 - 10,733 05:35
7 32174 GOUEREC Julien 02:59:15 SEM 4 00:33:54 00:33:54 TEAM OPALE 10,711 05:36
8 32163 MERCHIE Dominique 03:02:29 V2M 1 00:37:08 00:00:00 Decathlon jdp 10,522 05:42
9 32243 LEHON Ludovic 03:03:21 SEM 5 00:38:00 00:38:00 AC OUTREAU 10,472 05:44
10 32246 DUPONT Jean-Pierre 03:06:11 V2M 2 00:40:50 00:03:42 PATRIOTE CROSS DE GUINES 10,312 05:49
11 32167 LEMAIRE Jerome 03:07:07 V2M 3 00:41:46 00:04:38 - 10,261 05:51
12 32223 BERLY Manuella 03:07:19 V1F 1 00:41:58 00:00:00 MARCK ATHLON 10,250 05:51
13 32241 FLOURET STEPHANIE 03:08:23 V1F 2 00:43:02 00:01:04 AC OUTREAU 10,192 05:53
14 32196 DEMAL Axel 03:08:54 V1M 4 00:43:33 00:21:39 Free runners le club 10,164 05:54
15 32150 DEWET Wilfried 03:09:23 V1M 5 00:44:02 00:22:08 - 10,138 05:55
16 32145 BISIAUX Lionel 03:10:34 V1M 6 00:45:13 00:23:19 Cpss carvin 10,075 05:57
17 32207 VERGEOT Antoine 03:11:17 SEM 6 00:45:56 00:45:56 - 10,037 05:59
18 32212 ROLLAND-JACOB Anais 03:11:30 SEF 1 00:46:09 00:00:00 Decathlon 10,026 05:59
19 32172 GROUX Alex 03:12:22 V1M 7 00:47:01 00:25:07 - 9,981 06:01
20 32142 FERREIRA Sandrine 03:12:45 V1F 3 00:47:24 00:05:26 JEUNESSE CAPELLOISE 9,961 06:01
21 32143 LABE GEORGES-YVES 03:12:46 V1M 8 00:47:25 00:25:31 JEUNESSE CAPELLOISE 9,960 06:01
22 32202 DERUYTTER LENNERT 03:12:48 SEM 7 00:47:27 00:47:27 - 9,959 06:01
23 32156 DERYCKE Mickael 03:13:05 V1M 9 00:47:44 00:25:50 - 9,944 06:02
24 32190 LEMPEREUR Jean 03:13:36 V1M 10 00:48:15 00:26:21 Hem athletic club 9,917 06:03
25 32160 SXAY Stephane 03:13:44 V1M 11 00:48:23 00:26:29 - 9,911 06:03
26 32211 ROUBLIQUE Elisabeth 03:13:59 V1F 4 00:48:38 00:06:40 Tchimbé raid 9,898 06:04
27 32226 MENET Eric 03:14:03 V2M 4 00:48:42 00:11:34 Sport nature domartois 9,894 06:04
28 32181 RINGUET Frédéric 03:14:18 V2M 5 00:48:57 00:11:49 MARCK ATHLON 9,882 06:04
29 32127 GUILBERT Frédéric 03:14:29 SEM 8 00:49:08 00:49:08 - 9,872 06:05
30 32213 DE ABREU Kenny 03:18:20 SEM 9 00:52:59 00:52:59 - 9,681 06:12
31 32141 WITKOWSKI Yoann 03:19:12 SEM 10 00:53:51 00:53:51 CAC CALOTERIE 9,639 06:14
32 32216 LELEU Amory 03:19:25 SEM 11 00:54:04 00:54:04 - 9,628 06:14
33 32205 DUBOIS Thierry 03:20:10 V2M 6 00:54:49 00:17:41 RUNNING CLUB EPERLECQUES 9,592 06:15
34 32159 SAILLY-SIRGUE Fabrice 03:20:43 V1M 12 00:55:22 00:33:28 - 9,566 06:16
35 32203 VERSTRAETE Vincent 03:20:52 SEM 12 00:55:31 00:55:31 - 9,559 06:17
36 32162 FAUQUETTE FRANCOIS 03:20:52 SEM 13 00:55:31 00:55:31 Decathlon jdp 9,559 06:17
37 32157 MULLIER Bastien 03:22:05 SEM 14 00:56:44 00:56:44 - 9,501 06:19
38 32165 GRARE Aurélien 03:22:53 SEM 15 00:57:32 00:57:32 - 9,464 06:20
39 32194 LANGRAND alexandre 03:23:31 SEM 16 00:58:10 00:58:10 ARCELOR 9,434 06:22
40 32137 CORNU Anthony 03:24:01 V1M 13 00:58:40 00:36:46 - 9,411 06:23
41 32169 GUEUGNEAU DAM'S 03:24:48 V1M 14 00:59:27 00:37:33 Unirun 9,375 06:24
42 32170 BARUZZI Raphaël 03:24:49 SEM 17 00:59:28 00:59:28 Unirun 59 9,374 06:24
43 32245 DENIS Gwendoline 03:25:01 SEF 2 00:59:40 00:13:31 PATRIOTE CROSS DE GUINES 9,365 06:24
44 32130 BRUNELOT Vincent 03:25:02 SEM 18 00:59:41 00:59:41 - 9,364 06:24
45 32255 KOUKLEVSKY ANNE 03:25:28 V1F 5 01:00:07 00:18:09 9,345 06:25
46 32252 MAUQUEST NICOLAS 03:26:04 SEM 19 01:00:43 01:00:43 9,317 06:26
47 32222 FICQUET Romain 03:26:59 SEM 20 01:01:38 01:01:38 - 9,276 06:28
48 32112 MARQUEZE ANNE-LORRAINE 03:27:09 V1F 6 01:01:48 00:19:50 Usm 9,269 06:28
49 32155 TRUFFIER Emmanuel 03:27:29 V1M 15 01:02:08 00:40:14 Runner en nord 9,254 06:29
50 32199 REQUIN Antoine 03:27:31 SEM 21 01:02:10 01:02:10 JOGGING CLUB LICQUOIS 9,252 06:29
51 32215 OCHIN Guillaume 03:28:56 V1M 16 01:03:35 00:41:41 - 9,190 06:32
52 32168 MAES Julien 03:29:01 V1M 17 01:03:40 00:41:46 - 9,186 06:32
53 32175 BAVEYE Simon 03:29:27 SEM 22 01:04:06 01:04:06 - 9,167 06:33
54 32204 ERICX Eddy 03:29:36 V2M 7 01:04:15 00:27:07 Madres 9,160 06:33
55 32108 BETIN Jonathan 03:29:52 SEM 23 01:04:31 01:04:31 - 9,149 06:34
56 32164 FLAJOLLET Didier 03:31:03 V1M 18 01:05:42 00:43:48 - 9,097 06:36
57 32251 TALPERT ZOE 03:31:12 SEM 24 01:05:51 01:05:51 9,091 06:36
58 32230 TALPAERT Anthony 03:31:12 V1M 19 01:05:51 00:43:57 - 9,091 06:36
59 32224 SARRAZIN Sébastien 03:31:16 V1M 20 01:05:55 00:44:01 Stade longuenessois 9,088 06:36
60 32103 DUMONT Guillaume 03:33:52 V1M 21 01:08:31 00:46:37 - 8,978 06:41
61 32123 HOCHART Jerome 03:35:01 V1M 22 01:09:40 00:47:46 - 8,930 06:43
62 32107 GLORIE STIJN 03:35:14 SEM 25 01:09:53 01:09:53 - 8,921 06:44
63 32126 QUILLIOT Maxence 03:37:07 SEM 26 01:11:46 01:11:46 Tl59 8,843 06:47
64 32147 SABBADINI Guillaume 03:37:15 SEM 27 01:11:54 01:11:54 Sta sports et loisirs 8,838 06:47
65 32254 PARESYS PIERRE 03:37:51 SEM 28 01:12:30 01:12:30 8,813 06:48
66 32178 MULIER Grégory 03:38:15 V1M 23 01:12:54 00:51:00 - 8,797 06:49
67 32115 MARC Simon 03:38:40 SEM 29 01:13:19 01:13:19 - 8,780 06:50
68 32104 MORIN Antoine 03:38:40 SEM 30 01:13:19 01:13:19 - 8,780 06:50
69 32186 DEZOOMER Pierre 03:39:17 SEM 31 01:13:56 01:13:56 - 8,756 06:51
70 22060 CAZEEL Mickael 03:39:40 SEM 32 01:14:19 01:14:19 - 8,741 06:52
71 32132 GOSSELIN Delphine 03:40:10 V1F 7 01:14:49 00:32:51 - 8,721 06:53
72 32117 COUBEL Fabrice 03:40:49 V2M 8 01:15:28 00:38:20 - 8,695 06:54
73 32116 DEBOOM Christine 03:40:49 V1F 8 01:15:28 00:33:30 Usljogging 8,695 06:54
74 32177 GANSAM Poorshan 03:42:37 V1M 24 01:17:16 00:55:22 - 8,625 06:57
75 32106 DEJONGHE Stephane 03:43:10 V1M 25 01:17:49 00:55:55 RC ARRAS 8,603 06:58
76 32151 LEFEBVRE Stéphane 03:43:47 V1M 26 01:18:26 00:56:32 - 8,580 07:00
77 32208 LEFEBVRE Sébastien 03:43:47 V1M 27 01:18:26 00:56:32 Cg haubourdin 8,580 07:00
78 32125 BARBEY Marc 03:43:51 SEM 33 01:18:30 01:18:30 Asdn 8,577 07:00
79 32191 DUHAMEL Grégoire 03:44:15 SEM 34 01:18:54 01:18:54 BOULOGNE ATHLETIQUE CLUB 8,562 07:00
80 32118 GAZULLA JULIEN 03:44:17 SEM 35 01:18:56 01:18:56 BLARINGHEM TRAIL 8,561 07:01
81 32201 OLIVIER David 03:44:18 V1M 28 01:18:57 00:57:03 - 8,560 07:01
82 32228 PARMENT Fabien 03:44:46 V1M 29 01:19:25 00:57:31 ARTOIS ATHLETISME 8,542 07:01
83 32110 FOUBERT Giovanni 03:45:30 SEM 36 01:20:09 01:20:09 - 8,514 07:03
84 32131 LONGUET Florent 03:46:18 SEM 37 01:20:57 01:20:57 - 8,484 07:04
85 32219 CAROLINE Caroline 03:48:51 V1F 9 01:23:30 00:41:32 - 8,390 07:09
86 32187 IMBERT Benoit 03:48:51 V2M 9 01:23:30 00:46:22 - 8,390 07:09
87 32128 AGEZ David 03:49:43 V1M 30 01:24:22 01:02:28 - 8,358 07:11
88 32193 GOBERT Julien 03:49:51 SEM 38 01:24:30 01:24:30 OPALE TRAIL NATURE 8,353 07:11
89 32192 GOBERT Bruno 03:49:51 V2M 10 01:24:30 00:47:22 OPALE TRAIL NATURE 8,353 07:11
90 32119 THORON Danny 03:50:40 V1M 31 01:25:19 01:03:25 Trail de l'homme de spy 8,324 07:12
91 32148 BOIS Stephane 03:50:52 V1M 32 01:25:31 01:03:37 PATRIOTE CROSS DE GUINES 8,316 07:13
92 32111 FOUBERT Jason 03:51:18 SEM 39 01:25:57 01:25:57 - 8,301 07:14
93 32161 CONDETTE Maxime 03:52:58 SEM 40 01:27:37 01:27:37 - 8,242 07:17
94 32229 VOISIN Julien 03:53:03 SEM 41 01:27:42 01:27:42 Louch'angeles runners 8,239 07:17
95 32249 CHOUROT LUCIEN 03:57:09 V3M 1 01:31:48 00:00:00 LE DRAPEAU 8,096 07:25
96 32188 DEMARLE Julien 03:57:52 SEM 42 01:32:31 01:32:31 - 8,072 07:26
97 32144 LEFEVRE Celine 04:03:05 V1F 10 01:37:44 00:55:46 Cpss carvin 7,899 07:36
98 32237 RENAUT Maxime 04:05:18 V1M 33 01:39:57 01:18:03 - 7,827 07:40
99 32140 DUCROCQ Thierry 04:06:18 V1M 34 01:40:57 01:19:03 Crazy team united 7,795 07:42
100 32179 LEFEBVRE Christophe 04:06:19 V1M 35 01:40:58 01:19:04 - 7,795 07:42
101 32180 LACROIX Jerome 04:06:19 V1M 36 01:40:58 01:19:04 - 7,795 07:42
102 32146 DELATTAIGNANT Ludovic 04:06:21 V1M 37 01:41:00 01:19:06 - 7,794 07:42
103 32182 VERMERSCH Francis 04:06:26 V1M 38 01:41:05 01:19:11 - 7,791 07:42
104 32250 DA MOTA THIERRY 04:10:06 V1M 39 01:44:45 01:22:51 7,677 07:49
105 32184 HULOT Anthony 04:12:04 V1M 40 01:46:43 01:24:49 Lille running team 7,617 07:53
106 32153 DESBONNET Antonin 04:12:24 SEM 43 01:47:03 01:47:03 - 7,607 07:53
107 32232 FILLIERE Claire 04:12:26 SEF 3 01:47:05 01:00:56 - 7,606 07:53
108 32214 BASTIEN VERONIQUE 04:13:51 V2F 1 01:48:30 00:00:00 - 7,564 07:56
109 32236 TROUILLE Gaetan 04:14:05 V1M 41 01:48:44 01:26:50 - 7,557 07:56
110 32185 SELLIEZ Matthieu 04:15:22 V1M 42 01:50:01 01:28:07 GRAVELINES TRIATHLON 7,519 07:59
111 32189 CHEVANDIER Yann 04:15:22 V1M 43 01:50:01 01:28:07 - 7,519 07:59
112 32114 BRIAND Jérôme 04:16:10 V1M 44 01:50:49 01:28:55 - 7,495 08:00
113 32225 LOUIS Jean-philippe 04:16:19 V1M 45 01:50:58 01:29:04 - 7,491 08:01
114 32121 DUFLOS Patrice 04:18:40 V1M 46 01:53:19 01:31:25 - 7,423 08:05
115 32206 CHARLON Anne 04:23:35 V1F 11 01:58:14 01:16:16 - 7,284 08:14
116 32133 LESTIENNE Florence 04:24:37 SEF 4 01:59:16 01:13:07 - 7,256 08:16
117 32120 KLEIN Romain 04:24:38 SEM 44 01:59:17 01:59:17 - 7,255 08:16
118 32197 RAMON Ronny 04:24:41 V1M 47 01:59:20 01:37:26 Lokomotiefrunners 7,254 08:16
119 32200 VERMEULEN FILIP 04:24:42 V1M 48 01:59:21 01:37:27 Lokomotief runners ieper 7,253 08:16
120 32238 THIJS LEROY 04:24:45 SEM 45 01:59:24 01:59:24 - 7,252 08:16
121 32102 HERMANT Yannick 04:31:31 V1M 49 02:06:10 01:44:16 Run'in amiens 7,071 08:29
122 32135 EYMANN Cédric 04:31:31 SEM 46 02:06:10 02:06:10 - 7,071 08:29
123 32209 BUCKMAN Nicolas 04:31:38 SEM 47 02:06:17 02:06:17 Les coureurs du houtland 7,068 08:29
124 32244 NAVET florence 04:32:24 V1F 12 02:07:03 01:25:05 AC OUTREAU 7,048 08:31
125 32113 HANNON Thomas 04:35:46 SEM 48 02:10:25 02:10:25 - 6,962 08:37
126 32149 BISIAUX Laurent 05:00:46 V1M 50 02:35:25 02:13:31 Cpss carvin 6,384 09:24
127 32235 PAUCHET Vanessa 05:06:15 SEF 5 02:40:54 01:54:45 Fun trail 6,269 09:34
Juillet 2018
Lun Mar Mer Jeu Ven Sam Dim
1
2
3
4
5
6
7
8
9
10
11
12
13
14
15
16
17
18
19
20
21
22
23
24
25
26
27
29
30
31